createdAt,value
2023-05-17T00:02:00.483Z,100287.94
2023-05-17T00:04:31.052Z,100288.80
2023-05-17T00:07:01.824Z,100292.02
2023-05-17T00:09:32.279Z,100299.20
2023-05-17T00:12:02.796Z,100301.92
2023-05-17T00:14:33.299Z,100303.27
2023-05-17T00:17:03.883Z,100309.06
2023-05-17T00:19:34.545Z,100305.48
2023-05-17T00:22:05.384Z,100306.17
2023-05-17T00:24:35.915Z,100304.61
2023-05-17T00:27:07.450Z,100299.27
2023-05-17T00:29:37.964Z,100296.50
2023-05-17T00:32:09.312Z,100294.02
2023-05-17T00:34:39.936Z,100293.98
2023-05-17T00:37:10.614Z,100299.63
2023-05-17T00:39:41.073Z,100300.98
2023-05-17T00:42:12.371Z,100298.91
2023-05-17T00:44:42.877Z,100301.30
2023-05-17T00:47:13.458Z,100303.51
2023-05-17T00:49:46.415Z,100302.47
2023-05-17T00:52:16.906Z,100306.23
2023-05-17T00:54:47.982Z,100302.73
2023-05-17T00:57:19.101Z,100297.42
2023-05-17T00:59:50.625Z,100296.91
2023-05-17T01:02:21.469Z,100296.02
2023-05-17T01:04:52.342Z,100299.46
2023-05-17T01:07:22.928Z,100296.38
2023-05-17T01:09:53.882Z,100296.70
2023-05-17T01:12:38.958Z,100298.92
2023-05-17T01:15:16.814Z,100295.29
2023-05-17T01:17:55.719Z,100295.84
2023-05-17T01:20:30.445Z,100292.73
2023-05-17T01:23:23.459Z,100301.33
2023-05-17T01:26:01.737Z,100301.98
2023-05-17T01:28:32.517Z,100301.11
2023-05-17T01:31:05.017Z,100299.64
2023-05-17T01:33:37.469Z,100302.88
2023-05-17T01:36:09.819Z,100307.98
2023-05-17T01:38:40.408Z,100301.89
2023-05-17T01:41:15.190Z,100305.00
2023-05-17T01:43:51.925Z,100304.11
2023-05-17T01:46:29.484Z,100320.91
2023-05-17T01:49:07.707Z,100320.73
2023-05-17T01:51:45.915Z,100312.84
2023-05-17T01:54:20.511Z,100308.71
2023-05-17T01:56:57.685Z,100310.73
2023-05-17T01:59:31.062Z,100307.44
2023-05-17T02:02:06.304Z,100307.88
2023-05-17T02:04:37.392Z,100311.48
2023-05-17T02:07:08.167Z,100313.70
2023-05-17T02:09:38.715Z,100317.11
2023-05-17T02:12:10.489Z,100322.55
2023-05-17T02:14:41.011Z,100327.50
2023-05-17T02:17:11.541Z,100332.07
2023-05-17T02:19:42.114Z,100332.02
2023-05-17T02:22:12.649Z,100330.29
2023-05-17T02:24:43.234Z,100325.80
2023-05-17T02:27:15.827Z,100323.27
2023-05-17T02:29:46.330Z,100325.86
2023-05-17T02:32:16.835Z,100326.38
2023-05-17T02:34:49.223Z,100326.71
2023-05-17T02:37:19.851Z,100322.44
2023-05-17T02:39:50.436Z,100326.05
2023-05-17T02:42:21.600Z,100326.23
2023-05-17T02:44:53.076Z,100324.98
2023-05-17T02:47:23.841Z,100326.86
2023-05-17T02:49:54.583Z,100326.85
2023-05-17T02:52:25.103Z,100331.45
2023-05-17T02:54:55.657Z,100330.92
2023-05-17T02:57:26.634Z,100338.45
2023-05-17T02:59:57.589Z,100337.74
2023-05-17T03:02:28.676Z,100339.64
2023-05-17T03:04:59.311Z,100344.66
2023-05-17T03:07:30.282Z,100346.89
2023-05-17T03:10:00.952Z,100352.37
2023-05-17T03:12:36.098Z,100358.20
2023-05-17T03:15:08.078Z,100361.79
2023-05-17T03:17:37.739Z,100368.44
2023-05-17T03:20:11.010Z,100374.20
2023-05-17T03:22:41.530Z,100382.59
2023-05-17T03:25:12.538Z,100384.45
2023-05-17T03:27:43.126Z,100386.92
2023-05-17T03:30:15.801Z,100387.48
2023-05-17T03:32:47.748Z,100391.05
2023-05-17T03:35:18.534Z,100388.89
2023-05-17T03:37:53.760Z,100395.13
2023-05-17T03:40:24.867Z,100396.04
2023-05-17T03:42:55.688Z,100394.94
2023-05-17T03:45:28.401Z,100396.77
2023-05-17T03:47:59.353Z,100400.63
2023-05-17T03:50:32.081Z,100407.33
2023-05-17T03:53:02.754Z,100412.64
2023-05-17T03:55:33.635Z,100412.98
2023-05-17T03:58:04.223Z,100413.21
2023-05-17T04:00:34.905Z,100410.69
2023-05-17T04:03:05.775Z,100414.97
2023-05-17T04:05:36.749Z,100413.26
2023-05-17T04:08:08.148Z,100419.09
2023-05-17T04:10:42.122Z,100417.21
2023-05-17T04:13:12.764Z,100421.33
2023-05-17T04:15:43.348Z,100425.59
2023-05-17T04:18:14.313Z,100427.25
2023-05-17T04:20:45.013Z,100427.02
2023-05-17T04:23:15.522Z,100430.40
2023-05-17T04:25:46.835Z,100432.77
2023-05-17T04:28:17.816Z,100439.42
2023-05-17T04:30:49.345Z,100443.19
2023-05-17T04:33:20.300Z,100446.55
2023-05-17T04:35:51.730Z,100444.80
2023-05-17T04:38:22.506Z,100448.00
2023-05-17T04:40:53.668Z,100452.24
2023-05-17T04:43:24.176Z,100455.15
2023-05-17T04:46:00.162Z,100459.41
2023-05-17T04:48:33.949Z,100465.21
2023-05-17T04:51:05.831Z,100466.58
2023-05-17T04:53:36.577Z,100472.71
2023-05-17T04:56:11.834Z,100473.70
2023-05-17T04:58:42.546Z,100472.61
2023-05-17T05:01:13.251Z,100467.58
2023-05-17T05:03:43.995Z,100462.76
2023-05-17T05:06:16.313Z,100460.88
2023-05-17T05:08:47.643Z,100465.67
2023-05-17T05:11:18.969Z,100465.70
2023-05-17T05:13:49.619Z,100461.79
2023-05-17T05:16:20.138Z,100460.98
2023-05-17T05:18:50.880Z,100464.94
2023-05-17T05:21:21.679Z,100466.30
2023-05-17T05:23:52.524Z,100467.64
2023-05-17T05:26:23.969Z,100474.29
2023-05-17T05:28:55.026Z,100478.94
2023-05-17T05:31:25.751Z,100478.98
2023-05-17T05:33:57.020Z,100486.75
2023-05-17T05:36:27.772Z,100488.84
2023-05-17T05:38:58.624Z,100492.27
2023-05-17T05:41:29.352Z,100494.52
2023-05-17T05:43:59.971Z,100495.72
2023-05-17T05:46:31.136Z,100499.16
2023-05-17T05:49:02.245Z,100499.88
2023-05-17T05:51:34.230Z,100503.00
2023-05-17T05:54:04.945Z,100503.37
2023-05-17T05:56:35.569Z,100509.40
2023-05-17T05:59:06.215Z,100512.15
2023-05-17T06:01:37.689Z,100516.10
2023-05-17T06:04:08.294Z,100524.12
2023-05-17T06:06:39.426Z,100528.41
2023-05-17T06:09:12.339Z,100527.75
2023-05-17T06:11:43.161Z,100527.91
2023-05-17T06:14:13.667Z,100527.83
2023-05-17T06:16:44.228Z,100533.58
2023-05-17T06:19:14.818Z,100537.11
2023-05-17T06:21:45.450Z,100540.90
2023-05-17T06:24:16.927Z,100537.50
2023-05-17T06:26:47.516Z,100537.85
2023-05-17T06:29:17.969Z,100534.73
2023-05-17T06:31:48.463Z,100531.63
2023-05-17T06:34:18.962Z,100532.64
2023-05-17T06:36:49.508Z,100535.67
2023-05-17T06:39:20.107Z,100538.23
2023-05-17T06:41:50.623Z,100542.91
2023-05-17T06:44:21.235Z,100551.02
2023-05-17T06:46:51.772Z,100557.73
2023-05-17T06:49:22.290Z,100561.21
2023-05-17T06:51:54.726Z,100565.03
2023-05-17T06:54:25.341Z,100568.09
2023-05-17T06:56:55.888Z,100573.75
2023-05-17T06:59:26.394Z,100577.38
2023-05-17T07:01:57.629Z,100582.16
2023-05-17T07:04:28.745Z,100587.70
2023-05-17T07:06:59.469Z,100589.12
2023-05-17T07:09:29.964Z,100590.18
2023-05-17T07:12:00.553Z,100590.89
2023-05-17T07:14:31.160Z,100587.78
2023-05-17T07:17:01.650Z,100588.47
2023-05-17T07:19:32.241Z,100584.69
2023-05-17T07:22:02.870Z,100584.33
2023-05-17T07:24:33.702Z,100586.23
2023-05-17T07:27:04.245Z,100591.05
2023-05-17T07:29:34.716Z,100591.44
2023-05-17T07:32:06.993Z,100592.85
2023-05-17T07:34:37.653Z,100590.15
2023-05-17T07:37:08.547Z,100589.38
2023-05-17T07:39:39.212Z,100596.45
2023-05-17T07:42:10.610Z,100599.89
2023-05-17T07:44:41.089Z,100608.05
2023-05-17T07:47:11.702Z,100611.14
2023-05-17T07:49:42.293Z,100615.05
2023-05-17T07:52:12.905Z,100613.68
2023-05-17T07:54:43.409Z,100614.52
2023-05-17T07:57:13.941Z,100618.87
2023-05-17T07:59:44.419Z,100623.58
2023-05-17T08:02:14.921Z,100622.80
2023-05-17T08:04:46.006Z,100624.60
2023-05-17T08:07:19.044Z,100621.86
2023-05-17T08:09:49.591Z,100615.35
2023-05-17T08:12:20.108Z,100610.43
2023-05-17T08:14:50.901Z,100613.21
2023-05-17T08:17:22.359Z,100613.89
2023-05-17T08:19:53.274Z,100610.93
2023-05-17T08:22:23.827Z,100611.15
2023-05-17T08:24:54.378Z,100609.88
2023-05-17T08:27:26.155Z,100610.70
2023-05-17T08:29:57.863Z,100609.02
2023-05-17T08:32:28.476Z,100605.98
2023-05-17T08:34:59.425Z,100610.69
2023-05-17T08:37:29.909Z,100612.41
2023-05-17T08:40:00.513Z,100617.10
2023-05-17T08:42:32.118Z,100611.99
2023-05-17T08:45:02.656Z,100614.97
2023-05-17T08:47:34.363Z,100617.04
2023-05-17T08:50:06.141Z,100618.80
2023-05-17T08:52:38.693Z,100620.71
2023-05-17T08:55:11.333Z,100617.66
2023-05-17T08:57:42.800Z,100619.45
2023-05-17T09:00:18.886Z,100621.71
2023-05-17T09:02:49.634Z,100620.46
2023-05-17T09:05:20.445Z,100624.21
2023-05-17T09:07:52.961Z,100623.04
2023-05-17T09:10:23.756Z,100619.89
2023-05-17T09:12:54.795Z,100619.70
2023-05-17T09:15:27.187Z,100619.45
2023-05-17T09:17:59.344Z,100618.94
2023-05-17T09:20:34.556Z,100619.33
2023-05-17T09:23:05.647Z,100625.90
2023-05-17T09:25:37.009Z,100625.93
2023-05-17T09:28:08.979Z,100632.16
2023-05-17T09:30:39.609Z,100627.84
2023-05-17T09:33:11.888Z,100627.95
2023-05-17T09:35:44.125Z,100625.03
2023-05-17T09:38:16.188Z,100628.62
2023-05-17T09:40:46.705Z,100630.27
2023-05-17T09:43:24.191Z,100635.67
2023-05-17T09:45:59.506Z,100632.91
2023-05-17T09:48:30.901Z,100630.16
2023-05-17T09:51:03.176Z,100628.13
2023-05-17T09:53:38.522Z,100626.11
2023-05-17T09:56:11.019Z,100629.39
2023-05-17T09:58:41.706Z,100633.84
2023-05-17T10:01:13.394Z,100631.84
2023-05-17T10:03:44.588Z,100634.98
2023-05-17T10:06:23.748Z,100637.61
2023-05-17T10:09:07.749Z,100638.98
2023-05-17T10:11:41.401Z,100638.34
2023-05-17T10:14:16.176Z,100636.44
2023-05-17T10:16:47.960Z,100635.23
2023-05-17T10:19:20.978Z,100634.02
2023-05-17T10:21:53.939Z,100635.77
2023-05-17T10:24:26.533Z,100637.36
2023-05-17T10:26:57.404Z,100642.71
2023-05-17T10:29:28.440Z,100644.45
2023-05-17T10:31:59.913Z,100642.16
2023-05-17T10:34:31.977Z,100642.41
2023-05-17T10:37:02.365Z,100648.27
2023-05-17T10:39:34.878Z,100656.52
2023-05-17T10:42:14.742Z,100659.88
2023-05-17T10:44:46.602Z,100657.88
2023-05-17T10:47:18.074Z,100654.70
2023-05-17T10:49:51.561Z,100653.23
2023-05-17T10:52:24.475Z,100652.44
2023-05-17T10:54:55.954Z,100650.40
2023-05-17T10:57:49.922Z,100654.55
2023-05-17T11:00:27.677Z,100651.32
2023-05-17T11:03:15.408Z,100652.70
2023-05-17T11:06:12.755Z,100653.41
2023-05-17T11:09:09.209Z,100652.26
2023-05-17T11:11:59.693Z,100659.20
2023-05-17T11:14:43.658Z,100658.40
2023-05-17T11:17:18.888Z,100659.64
2023-05-17T11:20:13.476Z,100657.67
2023-05-17T11:22:51.145Z,100653.98
2023-05-17T11:25:22.556Z,100654.20
2023-05-17T11:27:53.863Z,100653.39
2023-05-17T11:30:28.815Z,100655.63
2023-05-17T11:33:04.571Z,100653.05
2023-05-17T11:35:39.153Z,100650.29
2023-05-17T11:38:18.572Z,100650.14
2023-05-17T11:40:50.307Z,100650.65
2023-05-17T11:43:22.818Z,100645.97
2023-05-17T11:45:57.738Z,100647.11
2023-05-17T11:48:29.209Z,100646.56
2023-05-17T11:51:02.255Z,100647.23
2023-05-17T11:53:33.868Z,100643.61
2023-05-17T11:56:05.523Z,100644.33
2023-05-17T11:58:36.419Z,100641.91
2023-05-17T12:01:08.773Z,100641.00
2023-05-17T12:03:39.272Z,100645.95
2023-05-17T12:06:13.218Z,100647.16
2023-05-17T12:08:47.076Z,100643.45
2023-05-17T12:11:21.691Z,100640.71
2023-05-17T12:13:52.466Z,100645.70
2023-05-17T12:16:25.030Z,100644.66
2023-05-17T12:18:57.261Z,100645.55
2023-05-17T12:21:27.986Z,100648.52
2023-05-17T12:23:58.502Z,100650.45
2023-05-17T12:26:29.070Z,100653.58
2023-05-17T12:29:01.448Z,100657.21
2023-05-17T12:31:40.485Z,100656.74
2023-05-17T12:34:14.332Z,100655.27
2023-05-17T12:36:45.780Z,100657.38
2023-05-17T12:39:18.224Z,100664.42
2023-05-17T12:41:50.791Z,100667.35
2023-05-17T12:44:22.142Z,100665.63
2023-05-17T12:46:54.093Z,100671.46
2023-05-17T12:49:24.859Z,100675.95
2023-05-17T12:51:55.444Z,100677.85
2023-05-17T12:54:30.575Z,100678.74
2023-05-17T12:57:12.292Z,100674.81
2023-05-17T12:59:53.054Z,100670.70
2023-05-17T13:02:24.053Z,100668.46
2023-05-17T13:04:54.876Z,100670.03
2023-05-17T13:07:26.392Z,100673.64
2023-05-17T13:09:56.943Z,100669.88
2023-05-17T13:12:27.512Z,100674.22
2023-05-17T13:14:58.202Z,100677.31
2023-05-17T13:17:36.813Z,100675.41
2023-05-17T13:20:10.854Z,100679.50
2023-05-17T13:22:48.322Z,100681.93
2023-05-17T13:25:18.841Z,100683.36
2023-05-17T13:27:49.614Z,100686.98
2023-05-17T13:30:20.306Z,100691.45
2023-05-17T13:32:51.693Z,100697.15
2023-05-17T13:35:22.356Z,100699.75
2023-05-17T13:37:53.491Z,100702.23
2023-05-17T13:40:24.230Z,100700.05
2023-05-17T13:42:54.718Z,100704.03
2023-05-17T13:45:25.427Z,100708.89
2023-05-17T13:47:55.988Z,100709.76
2023-05-17T13:50:26.957Z,100710.30
2023-05-17T13:52:57.680Z,100721.47
2023-05-17T13:55:28.268Z,100725.95
2023-05-17T13:57:58.779Z,100728.17
2023-05-17T14:00:29.615Z,100731.95
2023-05-17T14:03:00.516Z,100735.71
2023-05-17T14:05:33.543Z,100734.84
2023-05-17T14:08:04.270Z,100735.36
2023-05-17T14:10:34.822Z,100733.50
2023-05-17T14:13:05.490Z,100736.96
2023-05-17T14:15:38.339Z,100738.29
2023-05-17T14:18:10.363Z,100745.47
2023-05-17T14:20:40.884Z,100755.27
2023-05-17T14:23:11.682Z,100754.42
2023-05-17T14:25:43.855Z,100757.02
2023-05-17T14:28:15.195Z,100753.10
2023-05-17T14:30:46.808Z,100751.22
2023-05-17T14:33:18.369Z,100750.88
2023-05-17T14:35:48.998Z,100755.36
2023-05-17T14:38:20.455Z,100756.57
2023-05-17T14:40:51.013Z,100760.02
2023-05-17T14:43:21.488Z,100756.11
2023-05-17T14:45:51.973Z,100756.66
2023-05-17T14:48:22.919Z,100759.43
2023-05-17T14:50:53.709Z,100760.14
2023-05-17T14:53:29.106Z,100758.31
2023-05-17T14:55:59.928Z,100751.65
2023-05-17T14:58:30.399Z,100753.77
2023-05-17T15:01:05.483Z,100755.37
2023-05-17T15:03:37.205Z,100757.45
2023-05-17T15:06:11.654Z,100762.31
2023-05-17T15:08:42.577Z,100766.45
2023-05-17T15:11:13.868Z,100767.87
2023-05-17T15:13:44.527Z,100768.27
2023-05-17T15:16:15.064Z,100771.72
2023-05-17T15:18:45.676Z,100771.58
2023-05-17T15:21:17.650Z,100773.47
2023-05-17T15:23:50.756Z,100778.83
2023-05-17T15:26:21.559Z,100779.84
2023-05-17T15:28:52.170Z,100782.45
2023-05-17T15:31:24.320Z,100782.30
2023-05-17T15:33:54.960Z,100787.66
2023-05-17T15:36:25.616Z,100788.88
2023-05-17T15:38:56.248Z,100787.68
2023-05-17T15:41:29.686Z,100787.19
2023-05-17T15:44:01.836Z,100789.77
2023-05-17T15:46:32.594Z,100792.52
2023-05-17T15:49:03.312Z,100792.36
2023-05-17T15:51:33.891Z,100795.30
2023-05-17T15:54:04.504Z,100795.30
2023-05-17T15:56:38.264Z,100793.93
2023-05-17T15:59:08.848Z,100795.30
2023-05-17T16:01:46.307Z,100793.60
2023-05-17T16:04:16.953Z,100799.11
2023-05-17T16:06:47.543Z,100801.85
2023-05-17T16:09:18.133Z,100807.88
2023-05-17T16:11:48.688Z,100806.15
2023-05-17T16:14:20.244Z,100808.92
2023-05-17T16:16:52.430Z,100805.83
2023-05-17T16:19:23.515Z,100807.21
2023-05-17T16:21:54.466Z,100810.83
2023-05-17T16:24:24.962Z,100814.77
2023-05-17T16:26:55.470Z,100818.39
2023-05-17T16:29:25.990Z,100821.52
2023-05-17T16:31:56.751Z,100823.08
2023-05-17T16:34:29.300Z,100830.80
2023-05-17T16:36:59.857Z,100833.05
2023-05-17T16:39:30.374Z,100833.23
2023-05-17T16:42:00.910Z,100835.66
2023-05-17T16:44:31.468Z,100837.06
2023-05-17T16:47:02.860Z,100841.55
2023-05-17T16:49:33.531Z,100840.54
2023-05-17T16:52:04.039Z,100843.11
2023-05-17T16:54:35.799Z,100845.35
2023-05-17T16:57:08.379Z,100849.48
2023-05-17T16:59:39.407Z,100850.52
2023-05-17T17:02:10.305Z,100853.27
2023-05-17T17:04:40.833Z,100847.61
2023-05-17T17:07:11.364Z,100844.32
2023-05-17T17:09:41.912Z,100843.45
2023-05-17T17:12:23.659Z,100838.96
2023-05-17T17:14:55.850Z,100837.23
2023-05-17T17:17:26.815Z,100838.63
2023-05-17T17:19:57.440Z,100847.57
2023-05-17T17:22:28.011Z,100850.48
2023-05-17T17:24:58.580Z,100854.45
2023-05-17T17:27:29.123Z,100858.04
2023-05-17T17:29:59.702Z,100856.51
2023-05-17T17:32:30.347Z,100854.30
2023-05-17T17:35:01.141Z,100851.90
2023-05-17T17:37:31.704Z,100850.88
2023-05-17T17:40:02.215Z,100855.69
2023-05-17T17:42:32.782Z,100860.85
2023-05-17T17:45:03.464Z,100861.34
2023-05-17T17:47:33.989Z,100862.90
2023-05-17T17:50:04.710Z,100868.05
2023-05-17T17:52:36.813Z,100874.05
2023-05-17T17:55:10.710Z,100877.45
2023-05-17T17:57:41.798Z,100881.88
2023-05-17T18:00:16.070Z,100887.85
2023-05-17T18:02:46.730Z,100889.35
2023-05-17T18:05:17.334Z,100888.81
2023-05-17T18:07:47.957Z,100888.45
2023-05-17T18:10:18.688Z,100891.17
2023-05-17T18:12:51.492Z,100894.92
2023-05-17T18:15:22.346Z,100896.94
2023-05-17T18:17:54.823Z,100896.04
2023-05-17T18:20:26.460Z,100893.08
2023-05-17T18:22:57.191Z,100893.92
2023-05-17T18:25:27.776Z,100896.13
2023-05-17T18:27:58.351Z,100903.51
2023-05-17T18:30:29.195Z,100908.80
2023-05-17T18:32:59.872Z,100915.14
2023-05-17T18:35:30.697Z,100922.33
2023-05-17T18:38:01.324Z,100925.02
2023-05-17T18:40:32.056Z,100931.17
2023-05-17T18:43:02.639Z,100935.42
2023-05-17T18:45:36.391Z,100932.15
2023-05-17T18:48:07.732Z,100928.70
2023-05-17T18:50:38.523Z,100928.85
2023-05-17T18:53:19.643Z,100936.89
2023-05-17T18:55:50.138Z,100946.13
2023-05-17T18:58:20.651Z,100951.58
2023-05-17T19:00:51.357Z,100959.62
2023-05-17T19:03:21.974Z,100964.73
2023-05-17T19:05:52.774Z,100968.99
2023-05-17T19:08:23.390Z,100970.16
2023-05-17T19:10:53.953Z,100974.80
2023-05-17T19:13:24.517Z,100967.20
2023-05-17T19:15:55.143Z,100964.77
2023-05-17T19:18:25.697Z,100961.67
2023-05-17T19:20:56.274Z,100965.42
2023-05-17T19:23:28.094Z,100972.98
2023-05-17T19:25:58.899Z,100981.67
2023-05-17T19:28:31.570Z,100981.63
2023-05-17T19:31:02.171Z,100981.25
2023-05-17T19:33:34.137Z,100979.49
2023-05-17T19:36:03.466Z,100970.73
2023-05-17T19:38:34.586Z,100976.02
2023-05-17T19:41:07.528Z,100974.09
2023-05-17T19:43:38.528Z,100968.93
2023-05-17T19:46:10.794Z,100962.55
2023-05-17T19:48:42.386Z,100959.45
2023-05-17T19:51:48.605Z,100963.55
2023-05-17T19:58:38.573Z,100962.83
2023-05-17T20:05:22.901Z,100968.96
2023-05-17T20:07:53.430Z,100978.04
2023-05-17T20:10:24.998Z,100976.49
2023-05-17T20:12:55.535Z,100971.69
2023-05-17T20:15:26.309Z,100970.98
2023-05-17T20:17:56.843Z,100967.56
2023-05-17T20:20:27.669Z,100971.14
2023-05-17T20:22:58.863Z,100976.30
2023-05-17T20:25:29.403Z,100980.40
2023-05-17T20:27:59.905Z,100982.06
2023-05-17T20:30:31.033Z,100987.02
2023-05-17T20:33:01.797Z,100989.90
2023-05-17T20:35:32.426Z,100992.61
2023-05-17T20:38:02.928Z,100991.35
2023-05-17T20:40:33.725Z,100991.70
2023-05-17T20:43:04.661Z,100996.13
2023-05-17T20:45:35.406Z,101000.19
2023-05-17T20:48:06.349Z,101000.50
2023-05-17T20:50:37.141Z,101002.70
2023-05-17T20:53:08.037Z,101010.55
2023-05-17T20:55:38.603Z,101011.20
2023-05-17T20:58:09.441Z,101015.10
2023-05-17T21:00:40.021Z,101014.73
2023-05-17T21:03:11.191Z,101019.66
2023-05-17T21:05:42.203Z,101021.98
2023-05-17T21:08:13.488Z,101023.30
2023-05-17T21:10:47.057Z,101024.64
2023-05-17T21:13:17.667Z,101022.00
2023-05-17T21:16:18.311Z,101018.85
2023-05-17T21:18:48.876Z,101016.90
2023-05-17T21:21:22.684Z,101013.73
2023-05-17T21:23:53.456Z,101010.77
2023-05-17T21:26:24.299Z,101009.86
2023-05-17T21:28:54.817Z,101005.71
2023-05-17T21:31:25.360Z,101004.33
2023-05-17T21:33:55.953Z,101000.66
2023-05-17T21:36:26.473Z,101009.39
2023-05-17T21:38:56.947Z,101006.77
2023-05-17T21:41:27.438Z,101011.95
2023-05-17T21:43:57.926Z,101014.17
2023-05-17T21:46:28.802Z,101016.58
2023-05-17T21:48:59.320Z,101016.94
2023-05-17T21:51:29.994Z,101018.00
2023-05-17T21:54:00.643Z,101020.41
2023-05-17T21:56:31.154Z,101022.84
2023-05-17T21:59:01.664Z,101024.75
2023-05-17T22:01:33.317Z,101026.64
2023-05-17T22:04:04.112Z,101025.77
2023-05-17T22:06:35.050Z,101024.56
2023-05-17T22:09:06.719Z,101022.48
2023-05-17T22:11:39.182Z,101023.70
2023-05-17T22:14:10.266Z,101022.69
2023-05-17T22:16:41.158Z,101023.87
2023-05-17T22:19:11.748Z,101024.38
2023-05-17T22:21:42.263Z,101019.91
2023-05-17T22:24:12.752Z,101022.11
2023-05-17T22:26:43.260Z,101024.30
2023-05-17T22:29:13.986Z,101022.06
2023-05-17T22:31:44.578Z,101027.17
2023-05-17T22:34:15.801Z,101027.65
2023-05-17T22:36:46.374Z,101024.72
2023-05-17T22:39:16.885Z,101025.73
2023-05-17T22:41:47.449Z,101026.73
2023-05-17T22:44:18.385Z,101032.20
2023-05-17T22:46:50.408Z,101037.98
2023-05-17T22:49:21.014Z,101038.57
2023-05-17T22:51:51.960Z,101039.73
2023-05-17T22:54:22.435Z,101041.40
2023-05-17T22:56:53.156Z,101049.43
2023-05-17T22:59:23.638Z,101049.53
2023-05-17T23:01:54.199Z,101058.39
2023-05-17T23:04:30.148Z,101057.50
2023-05-17T23:07:02.235Z,101061.23
2023-05-17T23:09:33.760Z,101062.92
2023-05-17T23:12:06.542Z,101066.99
2023-05-17T23:14:37.346Z,101068.14
2023-05-17T23:17:08.608Z,101073.64
2023-05-17T23:19:40.730Z,101073.45
2023-05-17T23:22:11.495Z,101076.14
2023-05-17T23:24:41.991Z,101074.73
2023-05-17T23:27:12.827Z,101065.94
2023-05-17T23:29:43.360Z,101066.77
2023-05-17T23:32:13.908Z,101069.82
2023-05-17T23:34:45.606Z,101076.45
2023-05-17T23:37:16.754Z,101076.08
2023-05-17T23:39:47.243Z,101078.42
2023-05-17T23:42:19.239Z,101075.13
2023-05-17T23:44:49.059Z,101077.81
2023-05-17T23:47:19.674Z,101083.92
2023-05-17T23:49:50.148Z,101079.39
2023-05-17T23:52:20.683Z,101080.36
2023-05-17T23:54:51.232Z,101079.98
2023-05-17T23:57:21.710Z,101079.61
2023-05-17T23:59:52.250Z,101080.10
